createdAt,value
2023-04-20T00:02:17.883Z,3.30
2023-04-20T00:04:46.730Z,2.50
2023-04-20T00:07:16.667Z,3.10
2023-04-20T00:09:44.673Z,2.90
2023-04-20T00:12:12.654Z,2.60
2023-04-20T00:14:40.675Z,3.20
2023-04-20T00:17:08.772Z,2.73
2023-04-20T00:19:38.103Z,2.47
2023-04-20T00:22:06.192Z,2.80
2023-04-20T00:24:34.292Z,3.10
2023-04-20T00:27:02.413Z,3.80
2023-04-20T00:29:30.589Z,2.90
2023-04-20T00:31:58.692Z,3.40
2023-04-20T00:34:26.824Z,4.17
2023-04-20T00:36:56.161Z,3.23
2023-04-20T00:39:24.118Z,3.23
2023-04-20T00:41:52.079Z,3.50
2023-04-20T00:44:20.130Z,3.43
2023-04-20T00:46:48.346Z,2.73
2023-04-20T00:49:18.023Z,2.70
2023-04-20T00:51:46.284Z,3.73
2023-04-20T00:54:15.647Z,2.57
2023-04-20T00:56:44.001Z,3.03
2023-04-20T00:59:11.997Z,2.80
2023-04-20T01:01:40.039Z,2.80
2023-04-20T01:04:08.430Z,3.40
2023-04-20T01:06:36.596Z,2.80
2023-04-20T01:09:04.691Z,3.27
2023-04-20T01:11:34.002Z,2.50
2023-04-20T01:14:02.125Z,2.93
2023-04-20T01:16:30.304Z,3.40
2023-04-20T01:18:58.341Z,2.67
2023-04-20T01:21:26.858Z,3.57
2023-04-20T01:23:56.261Z,2.77
2023-04-20T01:26:25.972Z,2.60
2023-04-20T01:28:54.411Z,3.13
2023-04-20T01:31:22.596Z,2.73
2023-04-20T01:33:50.956Z,3.17
2023-04-20T01:36:18.997Z,2.67
2023-04-20T01:38:47.113Z,2.67
2023-04-20T01:41:16.588Z,3.00
2023-04-20T01:43:44.697Z,3.47
2023-04-20T01:46:12.839Z,3.27
2023-04-20T01:48:40.843Z,3.17
2023-04-20T01:51:09.566Z,2.63
2023-04-20T01:53:37.530Z,2.60
2023-04-20T01:56:06.124Z,2.60
2023-04-20T01:58:35.643Z,2.70
2023-04-20T02:01:04.697Z,3.40
2023-04-20T02:03:32.928Z,2.80
2023-04-20T02:06:01.049Z,2.30
2023-04-20T02:08:29.023Z,2.73
2023-04-20T02:10:57.011Z,2.33
2023-04-20T02:13:25.354Z,2.90
2023-04-20T02:15:55.456Z,3.10
2023-04-20T02:18:24.432Z,2.80
2023-04-20T02:20:52.974Z,2.57
2023-04-20T02:23:20.936Z,2.53
2023-04-20T02:25:48.902Z,3.20
2023-04-20T02:28:16.858Z,2.90
2023-04-20T02:30:44.893Z,2.80
2023-04-20T02:33:14.274Z,3.17
2023-04-20T02:35:42.259Z,2.63
2023-04-20T02:38:10.312Z,3.43
2023-04-20T02:40:38.199Z,2.30
2023-04-20T02:43:06.511Z,2.27
2023-04-20T02:45:34.518Z,3.47
2023-04-20T02:48:02.547Z,3.40
2023-04-20T02:50:31.928Z,3.20
2023-04-20T02:52:59.957Z,2.60
2023-04-20T02:55:28.515Z,2.90
2023-04-20T02:57:56.439Z,2.40
2023-04-20T03:00:24.745Z,3.00
2023-04-20T03:02:52.976Z,3.37
2023-04-20T03:05:21.723Z,3.03
2023-04-20T03:07:51.204Z,2.40
2023-04-20T03:10:19.225Z,2.40
2023-04-20T03:12:47.358Z,3.10
2023-04-20T03:15:15.620Z,2.63
2023-04-20T03:17:43.592Z,3.20
2023-04-20T03:20:13.283Z,3.30
2023-04-20T03:22:41.280Z,3.13
2023-04-20T03:25:11.792Z,3.50
2023-04-20T03:27:39.743Z,3.07
2023-04-20T03:30:09.880Z,2.80
2023-04-20T03:32:38.266Z,2.30
2023-04-20T03:35:07.273Z,2.43
2023-04-20T03:37:35.360Z,3.10
2023-04-20T03:40:03.359Z,3.20
2023-04-20T03:42:32.716Z,3.10
2023-04-20T03:45:00.722Z,3.40
2023-04-20T03:47:28.661Z,3.10
2023-04-20T03:49:56.588Z,2.73
2023-04-20T03:52:24.503Z,3.20
2023-04-20T03:54:52.516Z,2.97
2023-04-20T03:57:20.469Z,2.77
2023-04-20T03:59:49.837Z,3.27
2023-04-20T04:02:18.262Z,3.33
2023-04-20T04:04:46.446Z,3.30
2023-04-20T04:07:14.504Z,2.97
2023-04-20T04:09:42.513Z,3.40
2023-04-20T04:12:10.742Z,2.60
2023-04-20T04:14:38.710Z,2.50
2023-04-20T04:17:08.532Z,3.00
2023-04-20T04:19:36.556Z,2.50
2023-04-20T04:22:04.543Z,3.00
2023-04-20T04:24:33.255Z,2.60
2023-04-20T04:27:05.108Z,2.90
2023-04-20T04:29:35.622Z,2.83
2023-04-20T04:32:04.308Z,2.77
2023-04-20T04:34:33.761Z,3.23
2023-04-20T04:37:02.410Z,2.53
2023-04-20T04:39:31.428Z,2.70
2023-04-20T04:41:59.368Z,3.17
2023-04-20T04:44:28.719Z,2.43
2023-04-20T04:46:57.502Z,2.43
2023-04-20T04:49:26.505Z,2.80
2023-04-20T04:51:55.883Z,3.07
2023-04-20T04:54:23.886Z,2.60
2023-04-20T04:56:51.907Z,2.57
2023-04-20T04:59:19.994Z,2.90
2023-04-20T05:01:48.048Z,2.87
2023-04-20T05:04:16.157Z,2.70
2023-04-20T05:06:44.229Z,2.70
2023-04-20T05:09:13.526Z,2.23
2023-04-20T05:11:41.573Z,2.60
2023-04-20T05:14:09.706Z,2.20
2023-04-20T05:16:37.901Z,2.90
2023-04-20T05:19:05.995Z,2.40
2023-04-20T05:21:33.964Z,2.43
2023-04-20T05:24:01.914Z,2.47
2023-04-20T05:26:31.221Z,2.20
2023-04-20T05:28:59.226Z,2.40
2023-04-20T05:31:27.268Z,2.70
2023-04-20T05:33:55.366Z,2.30
2023-04-20T05:36:23.433Z,3.00
2023-04-20T05:38:51.428Z,2.20
2023-04-20T05:41:19.799Z,2.90
2023-04-20T05:43:49.093Z,2.40
2023-04-20T05:46:17.138Z,2.87
2023-04-20T05:48:45.166Z,2.27
2023-04-20T05:51:13.162Z,2.50
2023-04-20T05:53:41.601Z,3.00
2023-04-20T05:56:09.805Z,2.53
2023-04-20T05:58:38.446Z,2.13
2023-04-20T06:01:07.807Z,3.40
2023-04-20T06:03:36.291Z,3.30
2023-04-20T06:06:04.661Z,4.03
2023-04-20T06:08:32.673Z,2.93
2023-04-20T06:11:00.707Z,3.70
2023-04-20T06:13:28.747Z,3.47
2023-04-20T06:15:56.799Z,3.40
2023-04-20T06:18:26.200Z,3.20
2023-04-20T06:20:54.205Z,3.03
2023-04-20T06:23:22.193Z,3.10
2023-04-20T06:25:50.261Z,3.30
2023-04-20T06:28:18.188Z,3.10
2023-04-20T06:30:46.148Z,3.00
2023-04-20T06:33:17.192Z,2.70
2023-04-20T06:35:46.550Z,3.30
2023-04-20T06:38:14.644Z,3.47
2023-04-20T06:40:42.649Z,3.17
2023-04-20T06:43:10.752Z,2.97
2023-04-20T06:45:40.078Z,3.30
2023-04-20T06:48:17.351Z,3.43
2023-04-20T06:50:57.201Z,3.00
2023-04-20T06:53:25.194Z,3.10
2023-04-20T06:55:55.487Z,3.53
2023-04-20T06:58:23.514Z,3.00
2023-04-20T07:00:51.470Z,3.03
2023-04-20T07:03:19.760Z,2.97
2023-04-20T07:05:47.911Z,3.80
2023-04-20T07:08:17.340Z,2.80
2023-04-20T07:10:45.364Z,3.10
2023-04-20T07:13:13.359Z,3.03
2023-04-20T07:15:41.480Z,3.33
2023-04-20T07:18:09.555Z,2.90
2023-04-20T07:20:37.718Z,3.70
2023-04-20T07:23:05.743Z,2.73
2023-04-20T07:25:35.132Z,3.70
2023-04-20T07:28:03.196Z,3.50
2023-04-20T07:30:32.103Z,2.33
2023-04-20T07:33:00.140Z,2.50
2023-04-20T07:35:28.193Z,3.43
2023-04-20T07:37:56.338Z,3.17
2023-04-20T07:40:24.647Z,3.47
2023-04-20T07:42:53.937Z,3.20
2023-04-20T07:45:23.996Z,3.20
2023-04-20T07:47:53.914Z,3.10
2023-04-20T07:50:22.690Z,3.10
2023-04-20T07:52:50.759Z,3.47
2023-04-20T07:55:19.083Z,2.90
2023-04-20T07:57:47.053Z,3.80
2023-04-20T08:00:17.965Z,3.13
2023-04-20T08:02:45.985Z,3.13
2023-04-20T08:05:14.146Z,2.93
2023-04-20T08:07:42.399Z,3.10
2023-04-20T08:10:11.310Z,2.70
2023-04-20T08:12:39.969Z,2.47
2023-04-20T08:15:10.374Z,2.30
2023-04-20T08:17:39.599Z,2.50
2023-04-20T08:20:10.455Z,2.60
2023-04-20T08:22:39.169Z,2.30
2023-04-20T08:25:07.789Z,2.10
2023-04-20T08:27:35.899Z,2.90
2023-04-20T08:30:05.143Z,2.53
2023-04-20T08:32:33.455Z,2.50
2023-04-20T08:35:03.255Z,2.40
2023-04-20T08:37:32.848Z,2.50
2023-04-20T08:40:01.288Z,1.97
2023-04-20T08:42:29.308Z,1.83
2023-04-20T08:44:58.577Z,2.07
2023-04-20T08:47:29.095Z,1.93
2023-04-20T08:49:58.393Z,1.80
2023-04-20T08:52:27.690Z,2.10
2023-04-20T08:54:57.546Z,2.30
2023-04-20T08:57:27.120Z,2.07
2023-04-20T08:59:55.499Z,2.10
2023-04-20T09:02:23.951Z,1.50
2023-04-20T09:05:02.875Z,1.77
2023-04-20T09:07:32.726Z,2.07
2023-04-20T09:10:02.100Z,1.80
2023-04-20T09:12:30.212Z,1.70
2023-04-20T09:14:58.141Z,2.10
2023-04-20T09:17:34.727Z,1.70
2023-04-20T09:20:04.964Z,2.30
2023-04-20T09:22:36.516Z,1.77
2023-04-20T09:25:15.025Z,2.20
2023-04-20T09:27:43.071Z,2.27
2023-04-20T09:30:12.109Z,2.10
2023-04-20T09:32:40.178Z,1.73
2023-04-20T09:35:09.039Z,2.27
2023-04-20T09:37:48.897Z,1.60
2023-04-20T09:40:18.276Z,1.67
2023-04-20T09:42:47.477Z,2.37
2023-04-20T09:45:16.666Z,1.67
2023-04-20T09:47:45.681Z,2.10
2023-04-20T09:50:26.659Z,2.07
2023-04-20T09:52:59.441Z,1.70
2023-04-20T09:55:28.396Z,1.63
2023-04-20T09:57:58.753Z,1.80
2023-04-20T10:00:27.132Z,2.27
2023-04-20T10:02:55.431Z,1.43
2023-04-20T10:05:35.690Z,1.70
2023-04-20T10:08:05.363Z,1.30
2023-04-20T10:10:46.045Z,1.65
2023-04-20T10:13:16.845Z,1.50
2023-04-20T10:15:44.884Z,1.60
2023-04-20T10:18:20.951Z,1.53
2023-04-20T10:20:49.323Z,2.00
2023-04-20T10:23:19.735Z,1.67
2023-04-20T10:25:57.791Z,1.60
2023-04-20T10:28:26.060Z,2.00
2023-04-20T10:30:54.854Z,1.40
2023-04-20T10:33:23.328Z,2.17
2023-04-20T10:35:54.646Z,1.63
2023-04-20T10:38:35.097Z,1.80
2023-04-20T10:41:09.483Z,1.83
2023-04-20T10:43:39.084Z,1.67
2023-04-20T10:46:15.986Z,1.30
2023-04-20T10:48:57.997Z,2.50
2023-04-20T10:51:26.463Z,1.77
2023-04-20T10:54:07.546Z,1.70
2023-04-20T10:56:43.864Z,1.53
2023-04-20T10:59:14.041Z,2.60
2023-04-20T11:01:43.231Z,5.50
2023-04-20T11:04:12.531Z,6.20
2023-04-20T11:06:42.715Z,4.90
2023-04-20T11:09:26.156Z,4.00
2023-04-20T11:12:01.852Z,4.40
2023-04-20T11:14:31.181Z,4.03
2023-04-20T11:16:59.348Z,3.80
2023-04-20T11:19:29.111Z,3.47
2023-04-20T11:21:57.689Z,4.47
2023-04-20T11:24:29.291Z,3.87
2023-04-20T11:26:58.016Z,3.17
2023-04-20T11:29:31.820Z,2.57
2023-04-20T11:32:01.198Z,2.43
2023-04-20T11:34:29.985Z,1.87
2023-04-20T11:36:59.482Z,1.93
2023-04-20T11:39:29.719Z,1.97
2023-04-20T11:41:58.091Z,2.13
2023-04-20T11:44:27.190Z,2.00
2023-04-20T11:46:57.423Z,1.63
2023-04-20T11:49:27.465Z,1.53
2023-04-20T11:51:55.913Z,2.10
2023-04-20T11:54:24.041Z,1.60
2023-04-20T11:56:53.798Z,1.57
2023-04-20T11:59:21.977Z,1.70
2023-04-20T12:01:49.982Z,1.70
2023-04-20T12:04:18.345Z,1.20
2023-04-20T12:06:46.499Z,1.77
2023-04-20T12:09:14.724Z,1.30
2023-04-20T12:11:42.723Z,1.80
2023-04-20T12:14:12.004Z,1.40
2023-04-20T12:16:39.953Z,1.50
2023-04-20T12:19:08.960Z,1.30
2023-04-20T12:21:37.202Z,1.53
2023-04-20T12:24:05.616Z,1.40
2023-04-20T12:26:38.533Z,1.53
2023-04-20T12:29:08.052Z,1.83
2023-04-20T12:31:37.540Z,1.57
2023-04-20T12:34:06.456Z,1.80
2023-04-20T12:36:34.960Z,1.40
2023-04-20T12:39:04.611Z,1.87
2023-04-20T12:41:33.099Z,1.90
2023-04-20T12:44:04.176Z,1.50
2023-04-20T12:46:34.257Z,1.20
2023-04-20T12:49:03.781Z,1.60
2023-04-20T12:51:32.243Z,1.67
2023-04-20T12:54:00.691Z,1.97
2023-04-20T12:56:28.757Z,1.73
2023-04-20T12:58:56.875Z,1.30
2023-04-20T13:01:25.059Z,1.70
2023-04-20T13:03:53.366Z,2.23
2023-04-20T13:06:22.899Z,1.40
2023-04-20T13:08:51.397Z,1.67
2023-04-20T13:11:19.379Z,1.40
2023-04-20T13:13:47.417Z,1.50
2023-04-20T13:16:16.657Z,1.17
2023-04-20T13:18:44.857Z,1.50
2023-04-20T13:21:12.919Z,1.50
2023-04-20T13:23:42.283Z,1.73
2023-04-20T13:26:10.695Z,2.03
2023-04-20T13:28:38.817Z,1.30
2023-04-20T13:31:07.013Z,1.10
2023-04-20T13:33:35.111Z,2.67
2023-04-20T13:36:03.175Z,2.40
2023-04-20T13:38:31.321Z,3.30
2023-04-20T13:41:00.786Z,2.50
2023-04-20T13:43:28.892Z,3.00
2023-04-20T13:45:56.966Z,2.90
2023-04-20T13:48:25.009Z,3.17
2023-04-20T13:50:54.032Z,2.57
2023-04-20T13:53:22.440Z,3.10
2023-04-20T13:55:50.831Z,2.13
2023-04-20T13:58:20.360Z,3.10
2023-04-20T14:00:48.429Z,2.77
2023-04-20T14:03:18.714Z,2.80
2023-04-20T14:05:47.054Z,3.07
2023-04-20T14:08:15.954Z,2.63
2023-04-20T14:10:44.094Z,3.37
2023-04-20T14:13:12.132Z,2.60
2023-04-20T14:15:41.640Z,2.77
2023-04-20T14:18:09.748Z,3.10
2023-04-20T14:20:38.108Z,2.63
2023-04-20T14:23:08.815Z,2.67
2023-04-20T14:25:37.480Z,2.50
2023-04-20T14:28:06.018Z,2.43
2023-04-20T14:30:34.093Z,2.47
2023-04-20T14:33:04.195Z,2.80
2023-04-20T14:35:32.372Z,2.23
2023-04-20T14:38:00.359Z,2.90
2023-04-20T14:40:28.546Z,3.17
2023-04-20T14:42:56.985Z,2.50
2023-04-20T14:45:25.150Z,2.20
2023-04-20T14:47:54.932Z,1.90
2023-04-20T14:50:27.238Z,2.50
2023-04-20T14:52:56.695Z,2.77
2023-04-20T14:55:25.858Z,2.87
2023-04-20T14:57:56.731Z,2.87
2023-04-20T15:00:27.751Z,2.27
2023-04-20T15:02:57.314Z,2.83
2023-04-20T15:05:28.426Z,2.30
2023-04-20T15:07:58.500Z,2.30
2023-04-20T15:10:26.748Z,2.50
2023-04-20T15:12:54.839Z,2.13
2023-04-20T15:15:22.869Z,2.30
2023-04-20T15:17:51.275Z,2.43
2023-04-20T15:20:19.764Z,2.50
2023-04-20T15:22:51.984Z,2.40
2023-04-20T15:25:19.967Z,2.40
2023-04-20T15:27:48.042Z,2.10
2023-04-20T15:30:16.524Z,2.37
2023-04-20T15:32:44.739Z,2.50
2023-04-20T15:35:12.906Z,2.50
2023-04-20T15:37:40.891Z,2.37
2023-04-20T15:40:11.672Z,2.37
2023-04-20T15:42:39.682Z,2.77
2023-04-20T15:45:09.182Z,2.43
2023-04-20T15:47:37.260Z,3.20
2023-04-20T15:50:05.986Z,2.67
2023-04-20T15:52:34.397Z,2.67
2023-04-20T15:55:02.418Z,2.67
2023-04-20T15:57:31.876Z,2.60
2023-04-20T16:00:00.448Z,2.53
2023-04-20T16:02:28.693Z,2.03
2023-04-20T16:04:56.911Z,2.00
2023-04-20T16:07:24.962Z,2.20
2023-04-20T16:09:53.128Z,1.97
2023-04-20T16:12:21.121Z,2.00
2023-04-20T16:14:53.206Z,2.47
2023-04-20T16:17:21.881Z,3.00
2023-04-20T16:19:49.963Z,2.87
2023-04-20T16:22:18.102Z,2.50
2023-04-20T16:24:46.249Z,3.07
2023-04-20T16:27:14.788Z,1.90
2023-04-20T16:29:42.704Z,2.57
2023-04-20T16:32:12.444Z,2.30
2023-04-20T16:34:40.935Z,2.20
2023-04-20T16:37:08.964Z,2.77
2023-04-20T16:39:37.453Z,1.90
2023-04-20T16:42:05.684Z,2.50
2023-04-20T16:44:33.659Z,2.20
2023-04-20T16:47:01.915Z,2.63
2023-04-20T16:49:31.378Z,1.87
2023-04-20T16:51:59.396Z,1.77
2023-04-20T16:54:27.469Z,2.10
2023-04-20T16:56:55.882Z,2.13
2023-04-20T16:59:23.963Z,2.20
2023-04-20T17:01:52.051Z,2.73
2023-04-20T17:04:20.357Z,2.03
2023-04-20T17:06:50.113Z,2.40
2023-04-20T17:09:18.241Z,2.03
2023-04-20T17:11:46.282Z,1.73
2023-04-20T17:14:14.206Z,1.70
2023-04-20T17:16:42.281Z,2.40
2023-04-20T17:19:10.321Z,1.83
2023-04-20T17:21:40.344Z,2.20
2023-04-20T17:24:09.693Z,2.40
2023-04-20T17:26:37.674Z,2.33
2023-04-20T17:29:05.677Z,2.27
2023-04-20T17:31:34.256Z,2.10
2023-04-20T17:34:02.353Z,1.97
2023-04-20T17:36:30.353Z,1.70
2023-04-20T17:38:58.337Z,1.67
2023-04-20T17:41:27.676Z,1.83
2023-04-20T17:43:55.660Z,1.47
2023-04-20T17:46:24.444Z,2.30
2023-04-20T17:48:52.530Z,2.03
2023-04-20T17:51:20.655Z,2.40
2023-04-20T17:53:48.665Z,2.20
2023-04-20T17:56:16.638Z,2.20
2023-04-20T17:58:46.811Z,2.37
2023-04-20T18:01:14.842Z,2.57
2023-04-20T18:03:43.156Z,2.20
2023-04-20T18:06:11.417Z,2.23
2023-04-20T18:08:39.322Z,2.10
2023-04-20T18:11:07.364Z,2.00
2023-04-20T18:13:35.706Z,2.07
2023-04-20T18:16:07.227Z,3.13
2023-04-20T18:18:36.084Z,2.10
2023-04-20T18:21:05.076Z,1.83
2023-04-20T18:23:33.461Z,2.57
2023-04-20T18:26:01.594Z,3.10
2023-04-20T18:28:30.179Z,2.63
2023-04-20T18:30:58.986Z,1.77
2023-04-20T18:33:28.505Z,2.27
2023-04-20T18:35:56.905Z,2.58
2023-04-20T18:38:24.946Z,2.60
2023-04-20T18:40:52.995Z,2.27
2023-04-20T18:43:21.486Z,2.10
2023-04-20T18:45:49.481Z,2.13
2023-04-20T18:48:17.510Z,1.83
2023-04-20T18:50:48.064Z,2.40
2023-04-20T18:53:16.642Z,2.50
2023-04-20T18:55:44.618Z,2.20
2023-04-20T18:58:12.642Z,2.37
2023-04-20T19:00:40.683Z,2.77
2023-04-20T19:03:08.860Z,2.03
2023-04-20T19:05:37.629Z,2.53
2023-04-20T19:08:06.981Z,3.13
2023-04-20T19:10:35.007Z,2.10
2023-04-20T19:13:02.971Z,2.60
2023-04-20T19:15:31.324Z,2.60
2023-04-20T19:17:59.332Z,2.90
2023-04-20T19:20:27.860Z,2.40
2023-04-20T19:22:55.849Z,3.03
2023-04-20T19:25:25.226Z,2.27
2023-04-20T19:27:53.206Z,2.80
2023-04-20T19:30:21.284Z,2.27
2023-04-20T19:32:49.291Z,2.37
2023-04-20T19:35:17.381Z,2.83
2023-04-20T19:37:45.413Z,2.50
2023-04-20T19:40:13.660Z,1.90
2023-04-20T19:42:43.245Z,2.27
2023-04-20T19:45:11.798Z,2.10
2023-04-20T19:47:39.806Z,2.50
2023-04-20T19:50:08.780Z,2.40
2023-04-20T19:52:37.080Z,1.93
2023-04-20T19:55:07.125Z,2.23
2023-04-20T19:57:35.491Z,2.57
2023-04-20T20:00:07.586Z,2.37
2023-04-20T20:02:36.229Z,2.30
2023-04-20T20:05:05.964Z,2.10
2023-04-20T20:07:34.338Z,2.27
2023-04-20T20:10:03.047Z,2.30
2023-04-20T20:12:31.414Z,2.50
2023-04-20T20:14:59.488Z,2.43
2023-04-20T20:17:29.658Z,2.03
2023-04-20T20:19:58.246Z,1.90
2023-04-20T20:22:26.456Z,1.70
2023-04-20T20:24:54.641Z,2.37
2023-04-20T20:27:22.756Z,2.70
2023-04-20T20:29:50.769Z,2.30
2023-04-20T20:32:20.472Z,1.97
2023-04-20T20:34:50.053Z,2.40
2023-04-20T20:37:18.381Z,2.30
2023-04-20T20:39:46.441Z,2.33
2023-04-20T20:42:15.504Z,2.00
2023-04-20T20:44:43.971Z,2.00
2023-04-20T20:47:11.988Z,2.60
2023-04-20T20:49:39.963Z,2.53
2023-04-20T20:52:09.254Z,2.10
2023-04-20T20:54:37.218Z,2.10
2023-04-20T20:57:05.211Z,2.30
2023-04-20T20:59:33.249Z,2.27
2023-04-20T21:02:01.820Z,2.33
2023-04-20T21:04:30.403Z,2.27
2023-04-20T21:06:58.725Z,2.30
2023-04-20T21:09:28.060Z,2.00
2023-04-20T21:11:57.431Z,2.33
2023-04-20T21:14:25.471Z,2.33
2023-04-20T21:16:53.513Z,1.97
2023-04-20T21:19:21.674Z,1.93
2023-04-20T21:21:49.619Z,1.43
2023-04-20T21:24:17.764Z,1.70
2023-04-20T21:26:47.069Z,2.10
2023-04-20T21:29:15.247Z,1.83
2023-04-20T21:31:43.349Z,2.47
2023-04-20T21:34:11.443Z,2.00
2023-04-20T21:36:39.426Z,1.80
2023-04-20T21:39:07.866Z,2.07
2023-04-20T21:41:35.989Z,2.20
2023-04-20T21:44:05.950Z,1.67
2023-04-20T21:46:34.194Z,1.60
2023-04-20T21:49:02.415Z,1.90
2023-04-20T21:51:31.802Z,1.87
2023-04-20T21:53:59.809Z,2.60
2023-04-20T21:56:27.782Z,1.43
2023-04-20T21:58:55.767Z,1.43
2023-04-20T22:01:25.103Z,2.10
2023-04-20T22:03:53.361Z,1.50
2023-04-20T22:06:21.473Z,2.00
2023-04-20T22:08:49.687Z,1.90
2023-04-20T22:11:17.693Z,1.93
2023-04-20T22:13:45.678Z,1.77
2023-04-20T22:16:13.965Z,2.37
2023-04-20T22:18:43.324Z,1.67
2023-04-20T22:21:11.318Z,2.30
2023-04-20T22:23:39.299Z,1.70
2023-04-20T22:26:07.369Z,2.20
2023-04-20T22:28:35.343Z,2.00
2023-04-20T22:31:03.461Z,1.83
2023-04-20T22:33:31.465Z,2.20
2023-04-20T22:36:00.877Z,2.13
2023-04-20T22:38:28.923Z,1.87
2023-04-20T22:40:56.883Z,1.90
2023-04-20T22:43:24.853Z,2.17
2023-04-20T22:45:54.482Z,2.57
2023-04-20T22:48:22.589Z,1.77
2023-04-20T22:50:51.005Z,1.93
2023-04-20T22:53:20.363Z,2.43
2023-04-20T22:55:48.355Z,2.30
2023-04-20T22:58:16.376Z,2.60
2023-04-20T23:00:44.934Z,2.53
2023-04-20T23:03:13.033Z,2.00
2023-04-20T23:05:44.301Z,1.90
2023-04-20T23:08:13.582Z,2.23
2023-04-20T23:10:45.321Z,1.90
2023-04-20T23:13:16.618Z,1.80
2023-04-20T23:15:44.657Z,1.90
2023-04-20T23:18:12.935Z,2.60
2023-04-20T23:20:40.997Z,2.17
2023-04-20T23:23:10.675Z,3.87
2023-04-20T23:25:38.775Z,2.67
2023-04-20T23:28:08.080Z,2.43
2023-04-20T23:30:36.392Z,2.77
2023-04-20T23:33:04.444Z,2.93
2023-04-20T23:35:32.497Z,2.77
2023-04-20T23:38:00.849Z,2.40
2023-04-20T23:40:28.852Z,2.80
2023-04-20T23:42:56.842Z,2.50
2023-04-20T23:45:26.479Z,1.77
2023-04-20T23:47:54.648Z,2.10
2023-04-20T23:50:22.750Z,1.93
2023-04-20T23:52:50.790Z,2.27
2023-04-20T23:55:19.082Z,1.90
2023-04-20T23:57:48.274Z,1.93
